Time;durP1;ratioP1;P1;durP2;ratioP2;P2;SDS_P1;SDS_P2;PMS_P1;PMS_P2;Temp;Humidity;BMP_temperature;BMP_pressure;BME280_temperature;BME280_humidity;BME280_pressure;Samples;Min_cycle;Max_cycle;Signal;HPM_P1;HPM_P2
2023/11/09 00:01:38;;;;;;;2.80;1.50;;;;;;;7.24;80.65;96496.70;107007;1278;22596;-86
2023/11/09 00:04:04;;;;;;;6.50;1.80;;;;;;;7.23;80.97;96499.93;107123;1279;25409;-86
2023/11/09 00:06:30;;;;;;;2.70;1.00;;;;;;;7.19;80.70;96500.13;107009;1279;137690;-87
2023/11/09 00:08:56;;;;;;;2.10;1.40;;;;;;;7.16;80.66;96498.89;107021;1279;22541;-86
2023/11/09 00:11:23;;;;;;;2.20;1.20;;;;;;;7.15;81.26;96495.43;106973;1264;138143;-87
2023/11/09 00:13:50;;;;;;;1.70;1.20;;;;;;;7.11;81.58;96497.34;107133;1264;22556;-87
2023/11/09 00:16:16;;;;;;;1.90;1.20;;;;;;;7.06;81.18;96500.85;107065;1272;22551;-87
2023/11/09 00:18:42;;;;;;;4.20;1.20;;;;;;;7.04;81.08;96502.11;106909;1279;137734;-87
2023/11/09 00:21:08;;;;;;;3.10;1.70;;;;;;;7.02;81.20;96496.75;106936;1279;22590;-86
2023/11/09 00:23:35;;;;;;;3.30;1.60;;;;;;;7.00;81.63;96495.90;106890;1276;137870;-86
2023/11/09 00:26:01;;;;;;;3.70;1.70;;;;;;;6.99;81.35;96497.46;107048;1279;22568;-87
2023/11/09 00:28:27;;;;;;;3.40;1.50;;;;;;;6.97;81.46;96494.90;107026;1279;22582;-87
2023/11/09 00:30:53;;;;;;;4.00;1.50;;;;;;;6.93;81.44;96494.89;106991;1279;138096;-86
2023/11/09 00:33:19;;;;;;;2.60;1.60;;;;;;;6.91;81.43;96494.53;107248;1279;24278;-86
2023/11/09 00:35:46;;;;;;;3.80;1.60;;;;;;;6.92;81.26;96494.15;107232;1279;138554;-86
2023/11/09 00:38:14;;;;;;;2.20;1.40;;;;;;;6.92;81.38;96493.30;107244;1279;24531;-86
2023/11/09 00:40:43;;;;;;;1.90;1.40;;;;;;;6.93;81.49;96492.67;109961;1279;138362;-87
2023/11/09 00:43:09;;;;;;;3.80;1.60;;;;;;;6.95;81.48;96491.27;110193;1279;22184;-87
2023/11/09 00:45:35;;;;;;;3.10;1.70;;;;;;;6.98;81.57;96493.90;110189;1279;22206;-87
2023/11/09 00:48:02;;;;;;;2.40;1.80;;;;;;;7.01;81.33;96494.64;107329;1279;137890;-86
2023/11/09 00:50:28;;;;;;;3.80;1.40;;;;;;;7.05;81.05;96492.36;106926;1279;24754;-86
2023/11/09 00:52:54;;;;;;;2.60;1.80;;;;;;;7.08;81.02;96487.90;106868;1279;140413;-87
2023/11/09 00:55:20;;;;;;;3.50;1.60;;;;;;;7.11;80.99;96488.59;107111;1279;24378;-86
2023/11/09 00:57:46;;;;;;;2.70;1.80;;;;;;;7.12;80.82;96487.62;106992;1279;24862;-87
2023/11/09 01:00:12;;;;;;;2.60;1.50;;;;;;;7.13;80.85;96483.87;106980;1279;137928;-87
2023/11/09 01:02:39;;;;;;;4.20;1.90;;;;;;;7.14;80.81;96481.16;107154;1279;25378;-87
2023/11/09 01:05:06;;;;;;;3.40;1.80;;;;;;;7.15;80.73;96479.25;106957;1279;139657;-86
2023/11/09 01:07:32;;;;;;;3.00;2.00;;;;;;;7.14;80.64;96479.64;107073;1279;23290;-87
2023/11/09 01:09:59;;;;;;;5.20;2.60;;;;;;;7.14;80.68;96476.38;107101;1278;22593;-86
2023/11/09 01:12:26;;;;;;;5.10;2.70;;;;;;;7.12;80.81;96476.64;110005;1278;138561;-87
2023/11/09 01:14:52;;;;;;;4.90;1.90;;;;;;;7.09;80.70;96472.82;109586;1279;24354;-87
2023/11/09 01:17:18;;;;;;;3.90;1.70;;;;;;;7.06;80.68;96471.42;106857;1273;138460;-86
2023/11/09 01:19:44;;;;;;;6.00;3.20;;;;;;;7.04;80.73;96467.23;107119;1279;22544;-86
2023/11/09 01:22:10;;;;;;;4.20;1.80;;;;;;;7.04;80.63;96465.26;107265;1275;23590;-86
2023/11/09 01:24:35;;;;;;;4.30;1.80;;;;;;;7.02;80.98;96465.10;107229;1279;137978;-86
2023/11/09 01:27:01;;;;;;;4.30;1.90;;;;;;;6.98;80.97;96460.30;107169;1279;22538;-87
2023/11/09 01:29:27;;;;;;;3.00;2.00;;;;;;;6.95;80.79;96458.57;107175;1279;137873;-87
2023/11/09 01:31:54;;;;;;;4.00;1.90;;;;;;;6.93;80.88;96457.23;107232;1273;22603;-86
2023/11/09 01:34:21;;;;;;;3.50;1.90;;;;;;;6.90;81.01;96454.59;107305;1280;22601;-86
2023/11/09 01:36:47;;;;;;;4.10;2.10;;;;;;;6.88;80.91;96451.33;106868;1280;138126;-87
2023/11/09 01:39:13;;;;;;;4.80;2.30;;;;;;;6.86;80.80;96452.30;106998;1277;25335;-87
2023/11/09 01:41:41;;;;;;;3.30;1.80;;;;;;;6.84;80.56;96453.65;106886;1273;137863;-86
2023/11/09 01:44:08;;;;;;;2.70;1.80;;;;;;;6.83;80.46;96451.85;106952;1280;22599;-86
2023/11/09 01:46:34;;;;;;;2.50;1.80;;;;;;;6.83;80.51;96450.98;106855;1257;138009;-87
2023/11/09 01:49:00;;;;;;;4.40;2.30;;;;;;;6.82;80.57;96450.45;106926;1280;24204;-86
2023/11/09 01:51:26;;;;;;;3.50;1.80;;;;;;;6.79;80.70;96451.19;107173;1281;24389;-87
2023/11/09 01:53:52;;;;;;;4.00;1.80;;;;;;;6.78;81.10;96452.73;106945;1279;138573;-86
2023/11/09 01:56:18;;;;;;;3.40;1.60;;;;;;;6.76;80.99;96451.02;107022;1280;25266;-86
2023/11/09 01:58:45;;;;;;;2.80;1.70;;;;;;;6.73;81.23;96444.27;106795;1279;138468;-86
2023/11/09 02:01:12;;;;;;;4.70;1.80;;;;;;;6.70;81.08;96445.81;107033;1279;24203;-86
2023/11/09 02:03:40;;;;;;;5.70;2.10;;;;;;;6.69;80.95;96437.71;110148;1279;22306;-86
2023/11/09 02:06:09;;;;;;;3.30;2.50;;;;;;;6.67;81.53;96435.45;110002;1280;138095;-87
2023/11/09 02:08:35;;;;;;;3.90;1.80;;;;;;;6.64;81.44;96436.21;110055;1274;22196;-87
2023/11/09 02:11:02;;;;;;;3.60;1.70;;;;;;;6.63;81.99;96434.95;110077;1273;138234;-87
2023/11/09 02:13:28;;;;;;;2.90;1.50;;;;;;;6.62;82.31;96436.98;110187;1278;22382;-87
2023/11/09 02:15:55;;;;;;;3.00;2.10;;;;;;;6.59;82.61;96434.53;110179;1279;22337;-86
2023/11/09 02:18:22;;;;;;;2.80;2.00;;;;;;;6.57;82.71;96438.82;109972;1274;138736;-87
2023/11/09 02:20:52;;;;;;;4.60;1.90;;;;;;;6.53;82.52;96440.45;108251;1279;25409;-87
2023/11/09 02:23:23;;;;;;;3.60;1.50;;;;;;;6.49;82.91;96438.27;106953;1276;137846;-86
2023/11/09 02:25:51;;;;;;;4.70;1.70;;;;;;;6.44;82.78;96435.66;108372;1279;22586;-86
2023/11/09 02:28:18;;;;;;;3.60;1.80;;;;;;;6.41;82.88;96435.30;107296;1273;22537;-86
2023/11/09 02:30:44;;;;;;;4.70;1.90;;;;;;;6.40;83.09;96433.35;107165;1279;138648;-86
2023/11/09 02:33:10;;;;;;;3.40;1.60;;;;;;;6.38;82.99;96429.80;107058;1279;25334;-86
2023/11/09 02:35:37;;;;;;;3.40;1.50;;;;;;;6.36;83.34;96429.83;106919;1279;138275;-87
2023/11/09 02:38:03;;;;;;;3.10;2.40;;;;;;;6.33;83.57;96427.47;107168;1279;22594;-87
2023/11/09 02:40:29;;;;;;;3.30;1.60;;;;;;;6.29;83.69;96427.23;107110;1272;22547;-86
2023/11/09 02:42:56;;;;;;;2.20;1.50;;;;;;;6.26;83.54;96427.89;107044;1267;25243;-87
2023/11/09 02:45:22;;;;;;;4.10;2.00;;;;;;;6.25;83.63;96430.34;106904;1273;25553;-86
2023/11/09 02:47:48;;;;;;;4.30;2.70;;;;;;;6.25;83.41;96427.67;106832;1273;138146;-86
2023/11/09 02:50:14;;;;;;;4.80;3.40;;;;;;;6.25;83.35;96422.31;107265;1280;22541;-86
2023/11/09 02:52:41;;;;;;;4.70;2.80;;;;;;;6.26;83.51;96424.26;107147;1280;140789;-86
2023/11/09 02:55:08;;;;;;;4.40;1.90;;;;;;;6.26;83.30;96427.05;107232;1280;23088;-87
2023/11/09 02:57:34;;;;;;;2.70;1.80;;;;;;;6.26;83.32;96421.70;106940;1280;22574;-86
2023/11/09 03:00:03;;;;;;;3.10;1.70;;;;;;;6.26;83.38;96417.19;106944;1280;138503;-86
2023/11/09 03:02:28;;;;;;;3.90;2.20;;;;;;;6.27;83.14;96414.05;106977;1280;22616;-87
2023/11/09 03:04:54;;;;;;;5.10;1.90;;;;;;;6.27;83.33;96411.94;106856;1274;139161;-87
2023/11/09 03:07:20;;;;;;;2.80;2.00;;;;;;;6.28;83.07;96410.61;106977;1280;24327;-86
2023/11/09 03:09:46;;;;;;;2.40;1.60;;;;;;;6.28;82.81;96407.33;106959;1280;22554;-86
2023/11/09 03:12:12;;;;;;;4.90;1.60;;;;;;;6.29;82.79;96405.85;106842;1264;137960;-87
2023/11/09 03:14:39;;;;;;;4.00;1.60;;;;;;;6.31;82.78;96407.08;107240;1280;22687;-86
2023/11/09 03:17:08;;;;;;;4.10;2.00;;;;;;;6.32;82.72;96407.79;107140;1280;138921;-86
2023/11/09 03:19:35;;;;;;;3.50;1.70;;;;;;;6.34;82.62;96412.45;107242;1280;25384;-87
2023/11/09 03:22:02;;;;;;;2.20;1.70;;;;;;;6.35;82.55;96414.40;107121;1281;22547;-87
2023/11/09 03:24:29;;;;;;;2.20;1.70;;;;;;;6.36;82.46;96417.15;107032;1277;137941;-87
2023/11/09 03:26:59;;;;;;;4.60;2.00;;;;;;;6.36;82.40;96416.73;106975;1276;24221;-86
2023/11/09 03:29:24;;;;;;;3.60;1.60;;;;;;;6.36;82.26;96419.99;106743;1275;138726;-86
2023/11/09 03:31:51;;;;;;;2.60;1.30;;;;;;;6.37;82.09;96422.83;107022;1280;24255;-86
2023/11/09 03:34:17;;;;;;;2.40;1.50;;;;;;;6.38;81.88;96421.70;106906;1279;25390;-87
2023/11/09 03:36:43;;;;;;;3.40;1.30;;;;;;;6.39;81.65;96421.96;106789;1280;138195;-86
2023/11/09 03:39:09;;;;;;;3.00;1.30;;;;;;;6.41;81.68;96411.80;106962;1280;22544;-86
2023/11/09 03:41:35;;;;;;;4.90;1.60;;;;;;;6.43;81.57;96410.20;106900;1279;137919;-86
2023/11/09 03:44:01;;;;;;;2.90;1.20;;;;;;;6.44;81.45;96407.77;107256;1279;22567;-87
2023/11/09 03:46:27;;;;;;;2.20;1.50;;;;;;;6.47;81.30;96402.72;106941;1280;22555;-86
2023/11/09 03:48:53;;;;;;;2.50;1.30;;;;;;;6.49;81.15;96401.80;106959;1274;137654;-86
2023/11/09 03:51:19;;;;;;;2.50;1.40;;;;;;;6.50;81.01;96407.48;107037;1279;25339;-86
2023/11/09 03:53:45;;;;;;;2.50;1.30;;;;;;;6.52;81.11;96403.41;108313;1279;139342;-87
2023/11/09 03:56:11;;;;;;;3.20;1.40;;;;;;;6.52;81.07;96405.61;110181;1279;22998;-87
2023/11/09 03:58:37;;;;;;;4.10;1.50;;;;;;;6.53;80.93;96398.67;110078;1279;138710;-87
2023/11/09 04:01:03;;;;;;;2.50;1.30;;;;;;;6.54;80.82;96400.02;107622;1279;25508;-86
2023/11/09 04:03:29;;;;;;;3.10;1.90;;;;;;;6.56;80.83;96396.09;107016;1279;24219;-86
2023/11/09 04:05:56;;;;;;;1.90;1.30;;;;;;;6.56;80.69;96395.90;107140;1279;138631;-86
2023/11/09 04:08:21;;;;;;;1.80;1.00;;;;;;;6.57;80.58;96395.80;107137;1279;25336;-86
2023/11/09 04:10:47;;;;;;;4.10;1.60;;;;;;;6.58;80.36;96388.52;106903;1279;138578;-87
2023/11/09 04:13:14;;;;;;;3.00;1.40;;;;;;;6.60;80.39;96383.80;107110;1278;22605;-86
2023/11/09 04:15:40;;;;;;;2.30;1.30;;;;;;;6.60;80.30;96383.42;107331;1278;22571;-87
2023/11/09 04:18:06;;;;;;;6.50;2.00;;;;;;;6.61;80.04;96384.52;109626;1279;139046;-86
2023/11/09 04:20:32;;;;;;;3.60;1.40;;;;;;;6.63;80.00;96378.84;107411;1272;22560;-87
2023/11/09 04:23:01;;;;;;;3.30;2.20;;;;;;;6.65;80.11;96380.71;107242;1279;138337;-87
2023/11/09 04:25:26;;;;;;;2.10;1.10;;;;;;;6.66;79.91;96379.91;107293;1279;23049;-86
2023/11/09 04:27:52;;;;;;;2.60;1.20;;;;;;;6.66;79.57;96377.84;107068;1279;22639;-87
2023/11/09 04:30:20;;;;;;;3.10;1.40;;;;;;;6.67;79.17;96375.91;107113;1279;138081;-86
2023/11/09 04:32:47;;;;;;;1.80;1.20;;;;;;;6.69;79.18;96372.64;107042;1279;22550;-87
2023/11/09 04:35:14;;;;;;;3.10;1.50;;;;;;;6.70;79.07;96375.39;106910;1269;139050;-86
2023/11/09 04:37:41;;;;;;;2.40;1.20;;;;;;;6.71;79.03;96376.16;107080;1279;22602;-86
2023/11/09 04:40:15;;;;;;;2.80;1.00;;;;;;;6.72;78.95;96375.87;107236;1279;24231;-86
2023/11/09 04:42:43;;;;;;;2.00;1.20;;;;;;;6.73;78.80;96376.16;107209;1279;138375;-87
2023/11/09 04:45:12;;;;;;;3.20;1.30;;;;;;;6.74;79.05;96373.29;110199;1279;22840;-87
2023/11/09 04:47:41;;;;;;;1.60;1.00;;;;;;;6.74;78.76;96368.64;110009;1272;139106;-87
2023/11/09 04:50:17;;;;;;;1.20;0.80;;;;;;;6.73;78.66;96368.02;110173;1278;22356;-86
2023/11/09 04:52:57;;;;;;;1.90;0.90;;;;;;;6.73;78.23;96356.27;109034;1279;139709;-86
2023/11/09 04:56:07;;;;;;;2.90;1.00;;;;;;;6.76;78.22;96355.34;107289;1279;22550;-87
2023/11/09 05:09:10;;;;;;;2.70;1.00;;;;;;;6.78;77.88;96350.86;106958;1273;25353;-86
2023/11/09 05:11:36;;;;;;;1.30;0.90;;;;;;;6.76;78.04;96344.23;106959;1280;138016;-86
2023/11/09 05:14:02;;;;;;;2.00;1.20;;;;;;;6.76;77.54;96348.60;106900;1280;22555;-87
2023/11/09 05:16:29;;;;;;;3.50;1.10;;;;;;;6.75;77.51;96342.50;107015;1273;22577;-87
2023/11/09 05:18:55;;;;;;;4.70;1.70;;;;;;;6.75;77.46;96341.30;109919;1280;138896;-87
2023/11/09 05:21:21;;;;;;;2.90;1.10;;;;;;;6.75;77.35;96344.08;110041;1280;22323;-88
2023/11/09 05:23:47;;;;;;;2.60;1.00;;;;;;;6.76;77.06;96340.89;109200;1280;139143;-87
2023/11/09 05:26:12;;;;;;;3.90;1.40;;;;;;;6.79;76.67;96341.89;107026;1280;22537;-86
2023/11/09 05:28:39;;;;;;;2.60;1.00;;;;;;;6.82;76.91;96347.83;107114;1279;139755;-86
2023/11/09 05:31:08;;;;;;;1.80;0.80;;;;;;;6.82;76.65;96346.63;107128;1279;25432;-86
2023/11/09 05:33:37;;;;;;;2.10;1.10;;;;;;;6.82;76.49;96347.08;107012;1279;23916;-86
2023/11/09 05:36:07;;;;;;;3.50;1.10;;;;;;;6.82;76.43;96346.27;109954;1279;138037;-87
2023/11/09 05:38:35;;;;;;;4.70;2.10;;;;;;;6.82;76.22;96346.27;107779;1280;24235;-87
2023/11/09 05:41:01;;;;;;;2.30;0.90;;;;;;;6.82;76.00;96342.27;109900;1280;139044;-87
2023/11/09 05:43:27;;;;;;;3.70;2.00;;;;;;;6.84;75.98;96337.48;110088;1280;22185;-87
2023/11/09 05:45:53;;;;;;;2.10;1.30;;;;;;;6.86;75.54;96336.04;110055;1280;22261;-87
2023/11/09 05:48:19;;;;;;;1.60;1.10;;;;;;;6.89;75.44;96329.54;107633;1280;138869;-86
2023/11/09 05:50:45;;;;;;;2.50;0.80;;;;;;;6.91;75.20;96329.27;107085;1273;22543;-86
2023/11/09 05:53:12;;;;;;;3.80;1.50;;;;;;;6.94;75.03;96331.02;106830;1280;138257;-86
2023/11/09 05:55:38;;;;;;;2.30;0.90;;;;;;;6.96;74.62;96322.92;106974;1280;22682;-86
2023/11/09 05:58:04;;;;;;;1.10;0.80;;;;;;;6.99;74.84;96321.60;106969;1280;25520;-87
2023/11/09 06:00:30;;;;;;;1.70;0.90;;;;;;;7.01;74.45;96320.91;106797;1275;138445;-87
2023/11/09 06:02:58;;;;;;;1.70;0.70;;;;;;;7.02;74.20;96318.13;106975;1280;25407;-86
2023/11/09 06:05:24;;;;;;;2.30;0.90;;;;;;;7.05;74.08;96317.39;106842;1280;137804;-87
2023/11/09 06:07:52;;;;;;;3.10;1.10;;;;;;;7.06;74.15;96317.73;106927;1280;23886;-86
2023/11/09 06:10:20;;;;;;;3.60;1.40;;;;;;;7.07;73.90;96313.83;106982;1280;22593;-87
2023/11/09 06:12:46;;;;;;;1.90;0.90;;;;;;;7.08;73.70;96311.80;109945;1274;138124;-87
2023/11/09 06:15:15;;;;;;;2.70;0.80;;;;;;;7.10;73.46;96314.40;110154;1279;22430;-87
2023/11/09 06:17:43;;;;;;;3.20;1.50;;;;;;;7.11;73.19;96308.59;110036;1272;138948;-87
2023/11/09 06:20:16;;;;;;;2.20;0.80;;;;;;;7.14;72.95;96309.69;110105;1279;22240;-87
2023/11/09 06:22:45;;;;;;;1.10;0.60;;;;;;;7.16;72.51;96310.34;108445;1279;137962;-86
2023/11/09 06:25:12;;;;;;;1.90;0.80;;;;;;;7.19;71.65;96321.88;107282;1272;24607;-86
2023/11/09 06:27:38;;;;;;;2.70;0.80;;;;;;;7.23;71.41;96327.10;106975;1280;22530;-86
2023/11/09 06:30:04;;;;;;;2.60;1.00;;;;;;;7.27;71.45;96325.48;107132;1279;137933;-86
2023/11/09 06:32:32;;;;;;;2.80;1.10;;;;;;;7.29;71.34;96329.61;107208;1277;22544;-86
2023/11/09 06:34:59;;;;;;;1.00;0.70;;;;;;;7.29;71.21;96324.05;107097;1279;138614;-86
2023/11/09 06:37:26;;;;;;;3.10;0.90;;;;;;;7.30;70.26;96317.74;107270;1276;22696;-86
2023/11/09 06:39:53;;;;;;;3.50;0.90;;;;;;;7.31;70.89;96311.77;106997;1279;22573;-86
2023/11/09 06:42:18;;;;;;;1.10;0.60;;;;;;;7.31;70.78;96311.48;106830;1279;137230;-86
2023/11/09 06:44:44;;;;;;;1.30;0.50;;;;;;;7.31;69.93;96312.70;107235;1279;23629;-87
2023/11/09 06:47:10;;;;;;;1.20;0.70;;;;;;;7.33;69.58;96302.45;107130;1272;137650;-87
2023/11/09 06:49:37;;;;;;;2.70;0.80;;;;;;;7.36;69.51;96301.16;107089;1279;22564;-86
2023/11/09 06:52:04;;;;;;;5.10;2.40;;;;;;;7.38;70.06;96301.27;107153;1272;22575;-86
2023/11/09 06:54:32;;;;;;;2.20;0.90;;;;;;;7.38;68.88;96299.41;106995;1278;138347;-86
2023/11/09 06:57:02;;;;;;;1.60;0.70;;;;;;;7.40;68.95;96296.13;106971;1260;22614;-87
2023/11/09 06:59:28;;;;;;;1.60;0.70;;;;;;;7.43;68.50;96296.16;107654;1279;137597;-86
2023/11/09 07:01:57;;;;;;;3.30;1.10;;;;;;;7.46;68.59;96296.86;107135;1272;22544;-86
2023/11/09 07:04:23;;;;;;;1.60;0.70;;;;;;;7.48;68.31;96296.00;107240;1268;22682;-86
2023/11/09 07:06:50;;;;;;;1.40;0.70;;;;;;;7.49;68.27;96298.46;107050;1273;137517;-87
2023/11/09 07:09:17;;;;;;;1.50;0.60;;;;;;;7.50;68.23;96300.66;106992;1272;24034;-87
2023/11/09 07:11:43;;;;;;;0.70;0.50;;;;;;;7.51;68.04;96297.39;107659;1279;137128;-87
2023/11/09 07:14:11;;;;;;;3.30;0.70;;;;;;;7.51;68.09;96296.35;107035;1279;25323;-87
2023/11/09 07:16:37;;;;;;;2.50;0.80;;;;;;;7.51;67.71;96288.44;106896;1279;137277;-88
2023/11/09 07:19:03;;;;;;;2.10;0.90;;;;;;;7.53;67.32;96288.40;107036;1273;23876;-87
2023/11/09 07:21:30;;;;;;;1.90;0.80;;;;;;;7.56;66.84;96291.91;106935;1269;137524;-87
2023/11/09 07:23:59;;;;;;;2.20;0.70;;;;;;;7.61;66.84;96292.77;107037;1278;138045;-87
2023/11/09 07:26:27;;;;;;;2.50;0.80;;;;;;;7.63;66.67;96291.77;107098;1278;24237;-87
2023/11/09 07:28:53;;;;;;;1.70;0.80;;;;;;;7.66;66.35;96291.18;107227;1279;137250;-87
2023/11/09 07:31:20;;;;;;;0.90;0.70;;;;;;;7.68;66.36;96289.89;108039;1263;22600;-87
2023/11/09 07:33:49;;;;;;;2.00;0.50;;;;;;;7.71;66.05;96288.39;107183;1272;24278;-87
2023/11/09 07:36:17;;;;;;;3.00;0.60;;;;;;;7.74;65.23;96283.04;107210;1272;137570;-87
2023/11/09 07:38:43;;;;;;;1.20;0.50;;;;;;;7.79;65.08;96283.49;107107;1279;22540;-86
2023/11/09 07:41:10;;;;;;;1.70;0.60;;;;;;;7.82;65.26;96278.54;107005;1279;139882;-87
2023/11/09 07:43:35;;;;;;;0.90;0.60;;;;;;;7.85;65.11;96276.55;107033;1279;22614;-87
2023/11/09 07:46:02;;;;;;;0.80;0.50;;;;;;;7.86;64.91;96276.73;106996;1279;22543;-87
2023/11/09 07:48:28;;;;;;;1.10;0.60;;;;;;;7.88;64.76;96275.85;106894;1279;137115;-86
2023/11/09 07:50:54;;;;;;;0.90;0.60;;;;;;;7.89;64.42;96271.09;107166;1265;24326;-87
2023/11/09 07:53:21;;;;;;;0.90;0.70;;;;;;;7.91;63.80;96269.42;107186;1279;137226;-87
2023/11/09 07:55:50;;;;;;;1.50;0.70;;;;;;;7.94;64.18;96271.55;107770;1272;22967;-87
2023/11/09 07:58:17;;;;;;;1.50;0.60;;;;;;;7.97;63.57;96269.38;107039;1269;22611;-87
2023/11/09 08:00:43;;;;;;;51.10;30.30;;;;;;;8.00;63.96;96263.45;106946;1279;137542;-87
2023/11/09 08:03:09;;;;;;;34.70;14.60;;;;;;;8.02;63.59;96260.34;107208;1279;22540;-87
2023/11/09 08:05:41;;;;;;;15.00;6.30;;;;;;;8.04;63.50;96262.98;107003;1267;137407;-87
2023/11/09 08:08:10;;;;;;;4.50;2.00;;;;;;;8.06;63.12;96259.98;107068;1279;25397;-87
2023/11/09 08:10:38;;;;;;;2.90;1.20;;;;;;;8.11;62.78;96262.22;106956;1267;137943;-86
2023/11/09 08:24:24;;;;;;;4.20;1.40;;;;;;;8.38;62.63;96244.46;103919;1313;547815;-86
2023/11/09 08:26:51;;;;;;;2.70;1.10;;;;;;;8.43;62.85;96248.05;106439;1282;22550;-86
2023/11/09 08:29:17;;;;;;;1.30;0.80;;;;;;;8.48;63.50;96242.18;106219;1291;136283;-86
2023/11/09 08:31:43;;;;;;;2.00;0.70;;;;;;;8.50;62.71;96239.27;106390;1292;22605;-86
2023/11/09 08:34:11;;;;;;;1.80;0.80;;;;;;;8.55;62.51;96237.32;106270;1291;24235;-86
2023/11/09 08:36:37;;;;;;;2.10;1.30;;;;;;;8.60;62.22;96241.30;106186;1289;164506;-85
2023/11/09 08:39:03;;;;;;;1.50;0.80;;;;;;;8.65;62.73;96237.71;106494;1289;22622;-86
2023/11/09 08:41:30;;;;;;;2.00;0.80;;;;;;;8.68;61.77;96233.21;106349;1286;136237;-85
2023/11/09 08:43:56;;;;;;;1.40;1.00;;;;;;;8.75;62.12;96229.24;106199;1289;22651;-86
2023/11/09 08:46:23;;;;;;;1.60;0.70;;;;;;;8.80;62.12;96231.65;106553;1289;22544;-86
2023/11/09 08:48:49;;;;;;;1.60;0.70;;;;;;;8.85;61.33;96226.39;106354;1286;136807;-86
2023/11/09 08:51:15;;;;;;;1.50;0.70;;;;;;;8.91;61.45;96221.34;106446;1288;22566;-86
2023/11/09 08:53:42;;;;;;;0.70;0.60;;;;;;;8.98;60.69;96217.73;106414;1289;136411;-86
2023/11/09 08:56:10;;;;;;;1.60;0.90;;;;;;;9.03;61.89;96220.59;106204;1289;22615;-86
2023/11/09 08:58:39;;;;;;;1.60;0.70;;;;;;;9.08;61.93;96224.40;106464;1289;24277;-86
2023/11/09 09:01:16;;;;;;;1.30;0.80;;;;;;;9.13;61.76;96218.83;106486;1289;22585;-86
2023/11/09 09:03:45;;;;;;;2.70;1.00;;;;;;;9.18;62.73;96220.02;106471;1283;22554;-86
2023/11/09 09:06:13;;;;;;;2.30;1.00;;;;;;;9.21;62.72;96221.02;106212;1284;136641;-86
2023/11/09 09:08:39;;;;;;;1.30;1.00;;;;;;;9.24;62.82;96218.55;106495;1289;22639;-86
2023/11/09 09:11:06;;;;;;;1.60;0.70;;;;;;;9.28;63.17;96220.17;106456;1288;136655;-86
2023/11/09 09:13:33;;;;;;;1.10;0.70;;;;;;;9.31;62.74;96221.34;106622;1288;24213;-86
2023/11/09 09:16:00;;;;;;;1.90;1.30;;;;;;;9.36;63.08;96223.23;106660;1288;24345;-87
2023/11/09 09:18:25;;;;;;;1.90;0.90;;;;;;;9.41;63.37;96219.86;106494;1288;136489;-86
2023/11/09 09:20:52;;;;;;;3.20;1.80;;;;;;;9.45;63.54;96220.06;106498;1277;22628;-86
2023/11/09 09:23:18;;;;;;;1.90;1.10;;;;;;;9.50;63.96;96220.80;106419;1288;137175;-86
2023/11/09 09:25:45;;;;;;;2.70;1.30;;;;;;;9.53;63.64;96221.39;106581;1283;22753;-86
2023/11/09 09:28:11;;;;;;;3.00;0.80;;;;;;;9.58;63.88;96230.33;106538;1286;25399;-87
2023/11/09 09:30:37;;;;;;;1.80;1.10;;;;;;;9.62;64.04;96221.61;106787;1281;137261;-87
2023/11/09 09:33:03;;;;;;;1.50;1.00;;;;;;;9.65;64.05;96216.17;106840;1281;22664;-87
2023/11/09 09:35:32;;;;;;;1.90;1.10;;;;;;;9.70;63.99;96212.67;106783;1281;136638;-87
2023/11/09 09:37:59;;;;;;;2.30;0.90;;;;;;;9.76;64.40;96218.23;106876;1281;22597;-87
2023/11/09 09:40:32;;;;;;;2.50;0.90;;;;;;;9.80;64.65;96212.58;106968;1281;22570;-87
2023/11/09 09:42:58;;;;;;;2.60;1.40;;;;;;;9.84;65.13;96212.38;109870;1281;137846;-87
2023/11/09 09:45:27;;;;;;;2.40;0.90;;;;;;;9.90;64.87;96214.96;109991;1281;23165;-88
2023/11/09 09:47:54;;;;;;;2.70;0.80;;;;;;;9.96;64.79;96214.45;108598;1280;137512;-87
2023/11/09 09:50:22;;;;;;;3.10;2.50;;;;;;;10.02;64.50;96208.95;107171;1274;22678;-87
2023/11/09 09:52:55;;;;;;;10.40;4.20;;;;;;;10.07;65.06;96204.95;106870;1281;137317;-88
2023/11/09 09:55:21;;;;;;;1.70;0.90;;;;;;;10.14;65.14;96205.59;109974;1281;22266;-87
2023/11/09 09:57:47;;;;;;;10.70;4.10;;;;;;;10.18;65.23;96204.31;109890;1279;22492;-87
2023/11/09 10:00:26;;;;;;;3.10;1.90;;;;;;;10.23;65.24;96204.67;109816;1281;137575;-88
2023/11/09 10:03:02;;;;;;;5.90;3.00;;;;;;;10.29;65.32;96201.23;109932;1276;22179;-88
2023/11/09 10:05:33;;;;;;;4.80;3.50;;;;;;;10.36;65.18;96199.69;109782;1280;137806;-87
2023/11/09 10:08:10;;;;;;;4.50;1.70;;;;;;;10.42;65.38;96184.89;109894;1282;22366;-87
2023/11/09 10:10:38;;;;;;;7.60;4.20;;;;;;;10.49;65.59;96179.02;109939;1272;23241;-88
2023/11/09 10:13:07;;;;;;;4.20;1.80;;;;;;;10.56;65.80;96176.15;108905;1279;22537;-85
2023/11/09 10:15:33;;;;;;;2.80;1.20;;;;;;;10.62;64.91;96179.52;109010;1281;24238;-85
2023/11/09 10:18:00;;;;;;;5.40;1.90;;;;;;;10.66;65.18;96177.80;106862;1275;136872;-88
2023/11/09 10:20:27;;;;;;;3.10;1.30;;;;;;;10.70;65.04;96173.46;107022;1281;22582;-87
2023/11/09 10:22:53;;;;;;;2.30;1.20;;;;;;;10.73;65.45;96176.96;106900;1281;137813;-87
2023/11/09 10:25:19;;;;;;;4.10;1.90;;;;;;;10.75;65.26;96178.21;107010;1281;24903;-87
2023/11/09 10:27:47;;;;;;;1.90;1.60;;;;;;;10.77;64.81;96183.93;107128;1275;25638;-87
2023/11/09 10:30:16;;;;;;;3.20;2.80;;;;;;;10.79;65.21;96176.40;106878;1280;136801;-87
2023/11/09 10:32:46;;;;;;;2.10;1.60;;;;;;;10.79;64.80;96171.95;106965;1273;22768;-86
2023/11/09 10:35:13;;;;;;;2.50;1.70;;;;;;;10.81;65.16;96170.20;106773;1281;137973;-88
2023/11/09 10:37:43;;;;;;;2.40;1.40;;;;;;;10.81;64.87;96170.21;107206;1281;22665;-87
2023/11/09 10:40:13;;;;;;;2.30;1.00;;;;;;;10.81;64.97;96167.05;106951;1281;22664;-87
2023/11/09 10:42:40;;;;;;;2.40;1.20;;;;;;;10.84;65.25;96161.52;106744;1281;137220;-87
2023/11/09 10:45:10;;;;;;;1.60;1.20;;;;;;;10.87;65.11;96159.12;107191;1280;22534;-87
2023/11/09 10:47:39;;;;;;;1.60;1.00;;;;;;;10.88;64.83;96159.73;106799;1275;137252;-87
2023/11/09 10:50:13;;;;;;;2.60;1.20;;;;;;;10.88;64.50;96160.25;106889;1258;22553;-87
2023/11/09 10:52:43;;;;;;;1.50;0.70;;;;;;;10.87;64.62;96154.25;106931;1276;138004;-87
2023/11/09 10:55:16;;;;;;;1.40;0.90;;;;;;;10.86;64.03;96146.41;106976;1280;22553;-87
2023/11/09 10:57:43;;;;;;;1.60;1.00;;;;;;;10.85;63.63;96152.08;107011;1281;22548;-87
2023/11/09 11:00:11;;;;;;;1.80;0.80;;;;;;;10.84;63.87;96145.63;106873;1278;138670;-87
2023/11/09 11:02:43;;;;;;;2.00;1.30;;;;;;;10.86;64.16;96137.40;109052;1278;22546;-88
2023/11/09 11:05:09;;;;;;;1.50;1.20;;;;;;;10.89;64.38;96137.55;106823;1281;136995;-87
2023/11/09 11:07:35;;;;;;;1.40;1.00;;;;;;;10.92;63.96;96136.83;106911;1281;22547;-87
2023/11/09 11:10:02;;;;;;;1.30;1.00;;;;;;;10.92;64.04;96138.91;106886;1281;25674;-87
2023/11/09 11:12:28;;;;;;;0.80;0.70;;;;;;;10.90;63.86;96141.63;106779;1281;136999;-86
2023/11/09 11:14:56;;;;;;;2.40;1.10;;;;;;;10.87;63.74;96143.85;107000;1281;22638;-87
2023/11/09 11:17:45;;;;;;;2.80;1.30;;;;;;;10.85;63.57;96139.45;106777;1260;138314;-87
2023/11/09 11:20:30;;;;;;;1.40;1.20;;;;;;;10.84;62.83;96136.92;109994;1281;23035;-88
2023/11/09 11:23:02;;;;;;;2.00;0.90;;;;;;;10.86;63.67;96137.20;109857;1281;137306;-88
2023/11/09 11:25:35;;;;;;;1.70;0.90;;;;;;;10.91;64.25;96140.48;109969;1281;22185;-88
2023/11/09 11:28:05;;;;;;;1.20;1.10;;;;;;;10.95;63.80;96134.01;109933;1281;22295;-87
2023/11/09 11:30:32;;;;;;;2.80;1.00;;;;;;;11.02;63.41;96124.29;109901;1281;137104;-88
2023/11/09 11:33:05;;;;;;;1.20;1.10;;;;;;;11.10;63.54;96126.83;108795;1281;24235;-85
2023/11/09 11:35:33;;;;;;;;;;;;;;;11.18;63.47;96124.02;106936;1281;136994;-85
2023/11/09 11:38:15;;;;;;;1.00;0.90;;;;;;;11.25;63.42;96121.56;110008;1281;23029;-86
2023/11/09 11:40:45;;;;;;;1.00;0.90;;;;;;;11.33;62.86;96117.42;109823;1281;137430;-85
2023/11/09 11:43:12;;;;;;;1.60;1.10;;;;;;;11.37;62.16;96117.59;109282;1281;22548;-85
2023/11/09 11:45:41;;;;;;;1.70;0.90;;;;;;;11.39;62.54;96120.55;107003;1281;25373;-85
2023/11/09 11:48:27;;;;;;;2.60;1.00;;;;;;;11.40;62.39;96123.31;106669;1270;137008;-87
2023/11/09 11:50:55;;;;;;;1.30;0.90;;;;;;;11.41;62.37;96111.23;106943;1281;22534;-87
2023/11/09 11:53:28;;;;;;;2.50;1.00;;;;;;;11.41;61.89;96114.08;106982;1281;137578;-87